Terminal Aerodrome Forecast
Issued by NWS

Home | Current Version | Previous Version | Text Only | Print | Product List | Glossary On
Versions: 1 2 3 4 5 6 7 8 9 10 11 12 13 14
370
FTUS45 KFGZ 292331
TAFGCN
TAF
KGCN 292331Z 3000/3024 VRB05KT P6SM SKC
     FM301600 22015KT P6SM SCT130 BKN250
     FM301900 22029G42KT P6SM SCT060
      TEMPO 3021/3024 23034G50KT=

USA.gov is the U.S. government's official web portal to all federal, state and local government web resources and services.